MDSD/SDQ METAR and TAF weather

Enter ICAO airport designator
Station Type Date Time Source
MDSD METAR 2019/10/15 21:00 UTC NOAA

MDSD 152100Z 16006KT 9999 FEW020CB SCT022 SCT300 31/24 Q1012 CB/E/SW


Station Type Date Time Source
MDSD Decoded METAR 2019/10/15 21:00 UTC NOAA

Las Americas, Dominican Republic (MDSD) 18-26N 069-40W
Oct 15, 2019 - 05:00 PM EDT / 2019.10.15 2100 UTC
Wind: from the SSE (160 degrees) at 7 MPH (6 KT):0
Visibility: greater than 7 mile(s):0
Sky conditions: partly cloudy
Weather: Cumulonimbus clouds observed
Temperature: 87 F (31 C)
Heat index: 95.7 F (35.4 C):1
Dew Point: 75 F (24 C)
Relative Humidity: 66%
Pressure (altimeter): 29.88 in. Hg (1012 hPa)
ob: MDSD 152100Z 16006KT 9999 FEW020CB SCT022 SCT300 31/24 Q1012 CB/E/SW
cycle: 21

Station Type Date Time Source
MDSD TAF 2019/10/15 18:32 UTC NOAA

TAF MDSD 151600Z 1518/1618 16008KT 9999 FEW020CB SCT022 PROB30 1522/1604 8000 -TSRA FEW016CB SCT016 SCT070
BECMG 1523/1501 04005KT

Example: see airport list